Terminal Aerodrome Forecast
Issued by NWS

Home | Current Version | Previous Version | Text Only | Print | Product List | Glossary On
Versions: 1 2 3 4 5 6 7 8 9 10 11 12 13 14 15 16 17 18 19 20 21 22 23 24 25 26 27 28 29 30 31 32 33 34
000
FTUS42 KCAE 270911 AAC
TAFDNL
TAF AMD
KDNL 270911Z 2709/2806 VRB03KT P6SM SCT004 BKN120
      TEMPO 2709/2712 5SM BR BKN004
     FM271500 18004KT P6SM OVC025
     FM271800 23004KT P6SM VCTS BKN035 BKN050CB=

USA.gov is the U.S. government's official web portal to all federal, state and local government web resources and services.